Time;durP1;ratioP1;P1;durP2;ratioP2;P2;SDS_P1;SDS_P2;PMS_P1;PMS_P2;Temp;Humidity;BMP_temperature;BMP_pressure;BME280_temperature;BME280_humidity;BME280_pressure;Samples;Min_cycle;Max_cycle;Signal;HPM_P1;HPM_P2
2022/03/28 00:01:38;;;;;;;12.48;7.07;;;18.90;43.70;18.00;102340.00;;;;5060501;28;20036;-66
2022/03/28 00:04:24;;;;;;;11.20;6.72;;;18.80;43.70;18.00;102337.00;;;;5057819;28;20224;-65
2022/03/28 00:07:10;;;;;;;10.98;6.47;;;18.90;43.80;18.00;102340.00;;;;5058179;28;20045;-65
2022/03/28 00:09:56;;;;;;;9.02;6.38;;;18.90;43.80;18.00;102332.00;;;;5059813;28;20033;-65
2022/03/28 00:12:42;;;;;;;11.30;7.18;;;18.90;43.80;18.00;102324.00;;;;5053558;28;20548;-65
2022/03/28 00:15:28;;;;;;;12.60;7.43;;;18.90;43.80;18.00;102330.00;;;;5061239;28;20044;-66
2022/03/28 00:18:14;;;;;;;12.13;6.95;;;18.90;43.80;18.00;102327.00;;;;5058493;28;20053;-65
2022/03/28 00:21:03;;;;;;;10.13;7.20;;;18.90;43.80;17.90;102329.00;;;;5057328;28;20462;-65
2022/03/28 00:23:50;;;;;;;11.55;7.28;;;18.90;43.80;17.90;102326.00;;;;5054372;28;20486;-65
2022/03/28 00:26:36;;;;;;;10.15;7.13;;;18.90;43.90;17.90;102318.00;;;;5064059;28;20552;-65
2022/03/28 00:29:22;;;;;;;11.25;6.72;;;18.90;43.80;17.90;102307.00;;;;5051347;28;20435;-65
2022/03/28 00:32:08;;;;;;;11.43;6.50;;;18.90;43.80;17.90;102309.00;;;;5059547;28;20051;-65
2022/03/28 00:34:55;;;;;;;11.18;6.53;;;18.90;43.80;17.90;102310.00;;;;5052907;28;20453;-65
2022/03/28 00:37:41;;;;;;;15.60;8.13;;;18.90;43.80;17.90;102304.00;;;;5050135;28;20135;-65
2022/03/28 00:40:28;;;;;;;14.00;7.45;;;18.90;43.80;17.90;102306.00;;;;5058445;28;20037;-65
2022/03/28 00:43:14;;;;;;;12.40;7.28;;;18.80;43.80;17.90;102304.00;;;;5050987;28;20044;-65
2022/03/28 00:46:00;;;;;;;11.57;7.57;;;18.90;43.90;17.90;102296.00;;;;5059927;28;20040;-66
2022/03/28 00:48:47;;;;;;;12.23;8.27;;;18.90;43.90;17.90;102285.00;;;;5054567;28;20066;-65
2022/03/28 00:51:33;;;;;;;15.45;8.25;;;18.90;43.90;17.90;102288.00;;;;5060222;28;20047;-65
2022/03/28 00:54:19;;;;;;;12.98;7.95;;;18.90;44.00;17.90;102294.00;;;;5038582;28;20465;-65
2022/03/28 00:57:05;;;;;;;12.05;8.02;;;18.80;43.90;17.90;102294.00;;;;5030518;28;20048;-66
2022/03/28 00:59:51;;;;;;;13.25;8.18;;;18.90;43.90;17.90;102288.00;;;;5048127;28;20085;-65
2022/03/28 01:02:38;;;;;;;13.63;8.00;;;18.90;44.00;17.90;102282.00;;;;5037344;28;20037;-66
2022/03/28 01:05:26;;;;;;;12.80;8.18;;;18.90;44.00;17.90;102280.00;;;;5050568;28;20127;-65
2022/03/28 01:08:13;;;;;;;11.85;8.02;;;18.80;43.90;17.90;102284.00;;;;5056465;28;20036;-65
2022/03/28 01:11:06;;;;;;;12.83;7.70;;;18.50;43.70;17.90;102274.00;;;;5047687;28;20072;-65
2022/03/28 01:13:53;;;;;;;13.60;7.43;;;18.80;43.90;17.90;102272.00;;;;5054050;28;20308;-66
2022/03/28 01:19:43;;;;;;;11.65;7.75;;;18.80;43.90;17.90;102268.00;;;;5055571;28;20102;-65
2022/03/28 01:22:30;;;;;;;14.20;7.50;;;18.80;43.90;17.90;102261.00;;;;5053396;28;20040;-65
2022/03/28 01:25:16;;;;;;;13.20;7.95;;;18.80;43.90;17.90;102262.00;;;;5054186;28;20044;-65
2022/03/28 01:28:03;;;;;;;11.85;7.13;;;18.80;44.00;17.90;102248.00;;;;5026390;28;20052;-65
2022/03/28 01:30:49;;;;;;;15.55;8.20;;;18.80;44.00;17.90;102260.00;;;;5064396;28;20290;-65
2022/03/28 01:33:35;;;;;;;12.52;7.78;;;18.80;44.00;17.90;102255.00;;;;5055174;28;20485;-65
2022/03/28 01:36:24;;;;;;;11.73;7.72;;;18.80;44.00;17.90;102254.00;;;;5063526;28;20052;-65
2022/03/28 01:39:10;;;;;;;10.57;7.07;;;18.80;43.90;17.90;102251.00;;;;5040281;28;20117;-65
2022/03/28 01:41:57;;;;;;;13.02;7.55;;;18.80;43.90;17.90;102252.00;;;;5058709;28;20037;-65
2022/03/28 01:44:43;;;;;;;11.38;7.30;;;18.80;43.90;17.90;102241.00;;;;5060690;28;20059;-65
2022/03/28 01:47:29;;;;;;;13.85;7.80;;;18.80;44.00;17.90;102238.00;;;;5038593;28;20045;-65
2022/03/28 01:50:15;;;;;;;12.35;7.93;;;18.80;44.00;17.90;102242.00;;;;5062784;28;20044;-65
2022/03/28 01:53:01;;;;;;;11.00;7.40;;;18.80;43.90;17.90;102253.00;;;;5026296;28;20136;-66
2022/03/28 01:55:47;;;;;;;13.10;7.50;;;18.80;43.90;17.90;102253.00;;;;5056278;28;20041;-65
2022/03/28 01:58:33;;;;;;;12.55;7.28;;;18.80;44.00;17.90;102238.00;;;;5047792;28;20383;-65
2022/03/28 02:01:19;;;;;;;12.57;7.35;;;18.80;43.90;17.90;102235.00;;;;5054485;28;20110;-65
2022/03/28 02:04:06;;;;;;;11.13;7.00;;;18.70;43.80;17.90;102233.00;;;;5042869;28;20052;-65
2022/03/28 02:06:52;;;;;;;12.35;7.18;;;18.70;43.80;17.80;102231.00;;;;5059546;28;20204;-65
2022/03/28 02:09:38;;;;;;;10.07;6.53;;;18.70;43.90;17.80;102217.00;;;;5066892;28;20032;-65
2022/03/28 02:12:24;;;;;;;11.95;6.63;;;18.70;43.90;17.80;102214.00;;;;5061011;28;20045;-65
2022/03/28 02:15:10;;;;;;;14.68;6.45;;;18.80;44.00;17.80;102213.00;;;;5048772;28;20575;-66
2022/03/28 02:17:56;;;;;;;12.02;6.63;;;18.60;43.80;17.80;102207.00;;;;5063248;28;20037;-65
2022/03/28 02:20:42;;;;;;;10.60;5.75;;;18.70;43.90;17.80;102209.00;;;;5028564;28;20036;-65
2022/03/28 02:23:28;;;;;;;8.55;5.63;;;18.70;43.80;17.80;102209.00;;;;5058061;28;20550;-65
2022/03/28 02:26:14;;;;;;;10.75;6.43;;;18.70;43.90;17.80;102201.00;;;;5063421;28;20056;-65
2022/03/28 02:29:00;;;;;;;11.75;6.10;;;18.70;43.90;17.80;102203.00;;;;5047510;28;20041;-65
2022/03/28 02:31:46;;;;;;;11.30;6.05;;;18.70;43.80;17.80;102195.00;;;;5054182;28;20052;-65
2022/03/28 02:34:32;;;;;;;12.00;6.13;;;18.70;44.50;17.80;102186.00;;;;5066427;28;20441;-66
2022/03/28 02:37:19;;;;;;;12.32;5.93;;;18.70;43.80;17.80;102188.00;;;;5066275;28;20048;-65
2022/03/28 02:40:05;;;;;;;11.68;5.53;;;18.70;43.80;17.80;102187.00;;;;5065285;28;20083;-65
2022/03/28 02:42:52;;;;;;;11.57;5.37;;;18.70;43.80;17.80;102185.00;;;;5043658;28;20489;-65
2022/03/28 02:45:38;;;;;;;9.30;4.65;;;18.70;43.80;17.80;102176.00;;;;5068874;28;20047;-66
2022/03/28 02:48:24;;;;;;;11.82;5.28;;;18.70;43.80;17.80;102166.00;;;;5061668;28;20204;-65
2022/03/28 02:51:10;;;;;;;10.23;5.50;;;18.70;43.80;17.80;102166.00;;;;5069801;28;20076;-66
2022/03/28 02:53:56;;;;;;;10.88;4.97;;;18.60;43.80;17.70;102163.00;;;;5056843;28;20048;-65
2022/03/28 02:56:42;;;;;;;9.73;4.82;;;18.70;43.80;17.70;102154.00;;;;5050352;28;20538;-65
2022/03/28 02:59:28;;;;;;;7.93;4.60;;;18.60;43.80;17.70;102144.00;;;;5070661;28;20489;-65
2022/03/28 03:02:14;;;;;;;10.05;4.70;;;18.60;43.70;17.70;102150.00;;;;5059694;28;20124;-65
2022/03/28 03:05:00;;;;;;;8.15;4.80;;;18.60;43.70;17.70;102149.00;;;;5063261;28;20047;-65
2022/03/28 03:07:52;;;;;;;11.02;5.05;;;18.60;43.70;17.70;102148.00;;;;5043565;28;20071;-65
2022/03/28 03:10:38;;;;;;;9.60;4.13;;;18.60;43.70;17.70;102152.00;;;;5057654;28;20041;-65
2022/03/28 03:13:24;;;;;;;8.75;4.00;;;18.60;43.70;17.70;102144.00;;;;5063343;28;20430;-65
2022/03/28 03:16:10;;;;;;;7.25;3.85;;;18.60;43.70;17.70;102147.00;;;;5044636;28;20091;-65
2022/03/28 03:18:56;;;;;;;8.85;4.22;;;18.60;43.70;17.70;102140.00;;;;5064075;28;20486;-65
2022/03/28 03:21:42;;;;;;;10.70;4.20;;;18.60;43.70;17.70;102144.00;;;;5043549;28;20039;-65
2022/03/28 03:24:28;;;;;;;9.80;3.88;;;18.60;43.60;17.70;102142.00;;;;5056563;28;20110;-65
2022/03/28 03:27:14;;;;;;;8.38;3.70;;;18.60;43.70;17.70;102142.00;;;;5062771;28;20190;-65
2022/03/28 03:30:00;;;;;;;9.25;3.80;;;18.60;43.60;17.70;102133.00;;;;5053716;28;20045;-65
2022/03/28 03:32:46;;;;;;;8.75;3.33;;;18.50;44.30;17.70;102135.00;;;;5033213;28;20212;-65
2022/03/28 03:35:33;;;;;;;10.70;4.28;;;18.60;43.60;17.70;102135.00;;;;5059177;28;20068;-65
2022/03/28 03:38:19;;;;;;;7.25;4.03;;;18.60;43.60;17.70;102119.00;;;;5058904;28;20127;-65
2022/03/28 03:41:05;;;;;;;9.10;4.50;;;18.50;43.60;17.70;102121.00;;;;5063525;28;20033;-65
2022/03/28 03:43:51;;;;;;;8.13;3.60;;;18.60;43.60;17.70;102120.00;;;;5055960;28;20036;-65
2022/03/28 03:46:37;;;;;;;11.90;4.32;;;18.60;43.60;17.70;102110.00;;;;5069693;28;20032;-65
2022/03/28 03:49:23;;;;;;;9.43;3.30;;;18.50;43.50;17.70;102105.00;;;;5059143;28;20414;-65
2022/03/28 03:52:10;;;;;;;7.57;3.13;;;18.60;43.60;17.70;102126.00;;;;5057265;28;20561;-65
2022/03/28 03:54:56;;;;;;;9.02;3.47;;;18.60;43.50;17.60;102105.00;;;;5054293;28;20037;-65
2022/03/28 03:57:46;;;;;;;14.73;4.32;;;18.60;43.50;17.60;102110.00;;;;5057290;28;20053;-65
2022/03/28 04:00:32;;;;;;;11.02;3.72;;;18.50;43.50;17.60;102112.00;;;;5051809;28;20044;-65
2022/03/28 04:03:19;;;;;;;9.75;3.60;;;18.50;43.50;17.60;102107.00;;;;5057676;28;20095;-65
2022/03/28 04:06:05;;;;;;;10.70;4.15;;;18.50;43.50;17.60;102101.00;;;;5040980;28;20131;-65
2022/03/28 04:08:52;;;;;;;8.05;3.30;;;18.50;43.50;17.60;102101.00;;;;5052632;28;20045;-65
2022/03/28 04:11:38;;;;;;;8.10;3.58;;;18.50;43.50;17.60;102107.00;;;;5061817;28;20072;-65
2022/03/28 04:14:24;;;;;;;7.30;3.20;;;18.50;43.50;17.60;102105.00;;;;5057636;28;20045;-65
2022/03/28 04:17:10;;;;;;;6.82;3.38;;;18.50;43.50;17.60;102098.00;;;;5054837;28;20040;-65
2022/03/28 04:19:57;;;;;;;10.75;3.92;;;18.50;43.50;17.60;102095.00;;;;5062134;28;20409;-65
2022/03/28 04:22:43;;;;;;;7.32;3.35;;;18.50;43.50;17.60;102096.00;;;;5053082;28;20044;-65
2022/03/28 04:25:29;;;;;;;10.20;3.13;;;18.50;43.50;17.60;102092.00;;;;5057618;28;20124;-65
2022/03/28 04:28:15;;;;;;;8.88;3.90;;;18.50;43.50;17.60;102092.00;;;;5052619;28;20048;-65
2022/03/28 04:31:01;;;;;;;9.13;3.83;;;18.40;43.40;17.60;102086.00;;;;5057754;28;20083;-65
2022/03/28 04:33:47;;;;;;;10.07;3.20;;;18.40;43.40;17.60;102090.00;;;;5058515;28;20076;-65
2022/03/28 04:36:34;;;;;;;9.00;3.22;;;18.40;43.40;17.60;102097.00;;;;5060016;28;20055;-65
2022/03/28 04:39:20;;;;;;;10.63;3.35;;;18.40;43.40;17.50;102084.00;;;;5056771;28;20052;-65
2022/03/28 04:42:06;;;;;;;6.32;3.08;;;18.40;43.40;17.50;102084.00;;;;5054003;28;20394;-65
2022/03/28 04:44:53;;;;;;;7.63;2.97;;;18.40;43.40;17.50;102086.00;;;;5044964;28;20044;-65
2022/03/28 04:47:39;;;;;;;10.40;3.67;;;18.40;43.40;17.50;102079.00;;;;5051071;28;20036;-65
2022/03/28 04:50:25;;;;;;;11.73;3.88;;;18.40;43.40;17.50;102085.00;;;;5049246;28;20047;-65
2022/03/28 04:53:11;;;;;;;9.70;3.65;;;18.40;43.40;17.50;102089.00;;;;5039298;28;20083;-65
2022/03/28 04:55:57;;;;;;;8.82;3.72;;;18.40;43.40;17.50;102082.00;;;;5050485;28;20053;-66
2022/03/28 04:58:43;;;;;;;9.50;3.72;;;18.40;43.40;17.50;102085.00;;;;5055910;28;20048;-65
2022/03/28 05:01:30;;;;;;;9.65;4.10;;;18.40;43.30;17.50;102081.00;;;;5067001;28;20044;-65
2022/03/28 05:04:16;;;;;;;8.55;3.50;;;18.30;43.30;17.40;102078.00;;;;5057914;28;20497;-66
2022/03/28 05:07:02;;;;;;;10.68;4.05;;;18.30;43.30;17.40;102087.00;;;;5053094;28;20103;-66
2022/03/28 05:09:48;;;;;;;9.63;3.50;;;18.30;43.40;17.40;102084.00;;;;5035181;28;20041;-65
2022/03/28 05:12:34;;;;;;;10.40;3.50;;;18.30;43.30;17.40;102084.00;;;;5058862;28;20526;-65
2022/03/28 05:15:20;;;;;;;10.40;4.15;;;18.30;43.30;17.40;102083.00;;;;5039929;28;20041;-65
2022/03/28 05:18:06;;;;;;;8.13;4.30;;;18.30;43.30;17.40;102087.00;;;;5052723;28;20170;-65
2022/03/28 05:20:52;;;;;;;9.75;3.70;;;18.20;43.30;17.40;102076.00;;;;5055070;28;20033;-65
2022/03/28 05:23:38;;;;;;;7.68;4.00;;;18.30;43.30;17.40;102074.00;;;;5059166;28;20037;-65
2022/03/28 05:26:26;;;;;;;7.13;3.95;;;18.20;43.30;17.40;102067.00;;;;5063902;28;20084;-65
2022/03/28 05:29:12;;;;;;;9.30;4.35;;;18.20;43.30;17.40;102070.00;;;;5057791;28;20090;-65
2022/03/28 05:31:58;;;;;;;6.10;3.65;;;18.20;43.40;17.40;102070.00;;;;5043050;28;20056;-65
2022/03/28 05:34:44;;;;;;;6.78;3.53;;;18.20;43.30;17.40;102067.00;;;;5066539;28;20063;-65
2022/03/28 05:37:30;;;;;;;8.10;3.85;;;18.20;43.30;17.40;102073.00;;;;5058298;28;20128;-65
2022/03/28 05:40:16;;;;;;;7.38;3.83;;;18.20;43.30;17.30;102074.00;;;;5056912;28;20750;-65
2022/03/28 05:43:02;;;;;;;7.50;3.47;;;18.20;43.30;17.30;102075.00;;;;5029410;28;20053;-65
2022/03/28 05:45:48;;;;;;;6.88;3.80;;;18.20;43.30;17.30;102082.00;;;;5063900;28;20500;-65
2022/03/28 05:48:38;;;;;;;10.50;5.20;;;18.20;43.30;17.30;102081.00;;;;5075804;28;20091;-65
2022/03/28 05:51:24;;;;;;;6.47;3.83;;;18.20;43.30;17.30;102084.00;;;;5062456;28;20047;-65
2022/03/28 05:54:10;;;;;;;7.30;3.92;;;18.20;43.30;17.30;102091.00;;;;5056655;28;20040;-65
2022/03/28 05:56:56;;;;;;;6.47;3.20;;;18.20;43.30;17.30;102091.00;;;;5066905;28;20036;-65
2022/03/28 05:59:42;;;;;;;6.45;3.60;;;18.20;43.20;17.30;102093.00;;;;5056876;28;20069;-65
2022/03/28 06:02:28;;;;;;;7.13;3.42;;;18.20;43.30;17.30;102099.00;;;;5055296;28;20041;-65
2022/03/28 06:05:14;;;;;;;5.85;3.22;;;18.20;43.30;17.30;102105.00;;;;5059758;28;20048;-65
2022/03/28 06:08:00;;;;;;;5.00;3.15;;;18.10;43.20;17.30;102096.00;;;;5056554;28;20082;-65
2022/03/28 06:10:47;;;;;;;6.22;3.35;;;18.20;43.20;17.30;102095.00;;;;5044004;28;20033;-65
2022/03/28 06:13:33;;;;;;;6.63;3.13;;;18.10;43.20;17.30;102099.00;;;;5061787;28;20131;-65
2022/03/28 06:16:19;;;;;;;5.68;3.15;;;18.10;43.30;17.30;102088.00;;;;5061785;28;20417;-65
2022/03/28 06:19:05;;;;;;;5.82;2.72;;;18.10;43.30;17.30;102092.00;;;;5051983;28;20041;-65
2022/03/28 06:21:51;;;;;;;4.80;2.45;;;18.10;43.30;17.20;102092.00;;;;5042544;28;20052;-65
2022/03/28 06:24:37;;;;;;;4.25;2.85;;;18.10;43.30;17.20;102093.00;;;;5056119;28;20067;-65
2022/03/28 06:27:24;;;;;;;5.55;2.90;;;18.20;43.30;17.20;102098.00;;;;5059441;28;20492;-65
2022/03/28 06:30:11;;;;;;;3.97;2.38;;;18.10;43.30;17.20;102083.00;;;;5059372;28;20106;-65
2022/03/28 06:32:57;;;;;;;3.30;2.10;;;18.10;43.30;17.20;102089.00;;;;5038213;28;20451;-65
2022/03/28 06:35:45;;;;;;;3.38;2.22;;;18.10;43.30;17.20;102083.00;;;;5061222;28;20044;-65
2022/03/28 06:38:31;;;;;;;3.13;2.03;;;18.10;43.30;17.20;102080.00;;;;5056354;28;20044;-65
2022/03/28 06:41:17;;;;;;;3.58;2.20;;;18.10;43.40;17.20;102082.00;;;;5059744;28;20768;-65
2022/03/28 06:44:05;;;;;;;3.30;1.83;;;18.10;43.30;17.20;102088.00;;;;5057748;28;20458;-65
2022/03/28 06:46:51;;;;;;;2.65;2.00;;;18.10;43.20;17.20;102084.00;;;;5051987;28;20047;-65
2022/03/28 06:49:37;;;;;;;3.42;2.20;;;18.10;43.20;17.20;102085.00;;;;5053289;28;20481;-65
2022/03/28 06:52:23;;;;;;;2.72;2.10;;;18.10;43.20;17.20;102086.00;;;;5064303;28;20123;-65
2022/03/28 06:55:10;;;;;;;3.25;1.98;;;18.00;43.20;17.20;102082.00;;;;5058699;28;20420;-65
2022/03/28 06:57:56;;;;;;;4.32;2.03;;;18.00;43.20;17.20;102075.00;;;;5046097;28;20040;-66
2022/03/28 07:00:42;;;;;;;2.78;1.98;;;18.00;43.10;17.20;102082.00;;;;5049834;28;20043;-66
2022/03/28 07:03:28;;;;;;;4.43;2.33;;;18.10;43.30;17.20;102077.00;;;;5058163;28;20045;-66
2022/03/28 07:06:14;;;;;;;2.50;1.95;;;18.00;43.20;17.20;102079.00;;;;5047565;28;20041;-66
2022/03/28 07:09:04;;;;;;;3.47;2.42;;;18.10;43.20;17.20;102075.00;;;;5057235;28;20134;-65
2022/03/28 07:11:51;;;;;;;4.40;2.40;;;18.10;43.20;17.20;102080.00;;;;5056678;28;20171;-66
2022/03/28 07:14:37;;;;;;;2.45;1.95;;;18.10;43.30;17.20;102069.00;;;;5060922;28;20043;-65
2022/03/28 07:17:23;;;;;;;3.70;2.33;;;18.00;43.30;17.20;102066.00;;;;5045165;28;20095;-66
2022/03/28 07:20:10;;;;;;;2.80;2.08;;;18.10;43.30;17.20;102058.00;;;;5063265;28;20040;-66
2022/03/28 07:22:56;;;;;;;2.38;1.80;;;18.00;43.20;17.20;102058.00;;;;5055412;28;20472;-65
2022/03/28 07:25:43;;;;;;;2.30;2.00;;;18.00;43.20;17.20;102043.00;;;;5041251;28;20035;-65
2022/03/28 07:28:29;;;;;;;4.25;2.70;;;18.10;43.30;17.20;102043.00;;;;5064454;28;20045;-65
2022/03/28 07:31:17;;;;;;;4.25;2.45;;;18.10;43.30;17.20;102034.00;;;;5053935;28;20568;-65
2022/03/28 07:37:09;;;;;;;4.85;2.47;;;18.10;43.30;17.20;102045.00;;;;5066282;28;20032;-64
2022/03/28 07:39:57;;;;;;;3.65;2.40;;;18.10;43.30;17.20;102032.00;;;;5056042;28;20037;-64
2022/03/28 07:42:43;;;;;;;3.67;2.75;;;18.10;43.30;17.20;102037.00;;;;5065725;28;20036;-64
2022/03/28 07:45:29;;;;;;;3.90;2.45;;;18.10;43.30;17.20;102032.00;;;;5044244;28;20044;-64
2022/03/28 07:48:15;;;;;;;4.13;2.75;;;18.10;43.20;17.20;102028.00;;;;5051840;28;20048;-63
2022/03/28 07:51:01;;;;;;;3.65;3.00;;;18.00;43.10;17.20;102021.00;;;;5068290;28;20044;-64
2022/03/28 07:53:48;;;;;;;4.18;2.80;;;18.20;43.20;17.20;102017.00;;;;5058242;28;20044;-64
2022/03/28 07:56:34;;;;;;;4.47;3.28;;;18.10;43.20;17.20;102024.00;;;;5056016;28;20093;-64
2022/03/28 07:59:21;;;;;;;5.93;3.83;;;18.10;43.20;17.20;102023.00;;;;5057975;28;20110;-64
2022/03/28 08:02:07;;;;;;;5.30;3.70;;;18.10;43.20;17.20;102024.00;;;;5064542;28;20060;-64
2022/03/28 08:04:53;;;;;;;7.10;4.25;;;18.10;43.30;17.20;102023.00;;;;5048503;28;20048;-64
2022/03/28 08:07:39;;;;;;;6.78;3.58;;;18.10;43.30;17.20;102028.00;;;;5057569;28;20115;-64
2022/03/28 08:10:25;;;;;;;5.85;3.85;;;18.20;43.30;17.20;102030.00;;;;5061123;28;20132;-64
2022/03/28 08:13:11;;;;;;;7.65;4.38;;;18.10;43.30;17.20;102034.00;;;;5040405;28;20080;-64
2022/03/28 08:15:57;;;;;;;5.95;4.00;;;18.10;43.20;17.20;102037.00;;;;5058567;28;20071;-64
2022/03/28 08:18:43;;;;;;;6.40;4.03;;;18.10;43.20;17.20;102034.00;;;;5070246;28;20040;-65
2022/03/28 08:21:30;;;;;;;6.53;4.00;;;18.20;43.30;17.30;102026.00;;;;5058285;28;20068;-64
2022/03/28 08:24:16;;;;;;;6.20;3.88;;;18.20;43.30;17.30;102035.00;;;;5036456;28;20444;-64
2022/03/28 08:27:02;;;;;;;6.47;4.45;;;18.10;43.20;17.20;102037.00;;;;5055082;28;20051;-63
2022/03/28 08:29:48;;;;;;;8.30;4.60;;;18.20;43.30;17.30;102034.00;;;;5062864;28;20040;-64
2022/03/28 08:32:34;;;;;;;7.38;4.70;;;18.20;43.30;17.20;102029.00;;;;5059043;28;20105;-64
2022/03/28 08:35:21;;;;;;;8.10;4.95;;;18.20;43.30;17.30;102035.00;;;;5057345;28;20036;-64
2022/03/28 08:38:07;;;;;;;9.57;5.22;;;18.30;43.40;17.20;102030.00;;;;5063945;28;20675;-64
2022/03/28 08:40:54;;;;;;;10.38;5.80;;;18.20;43.30;17.30;102030.00;;;;5060698;28;20032;-64
2022/03/28 08:43:41;;;;;;;10.02;5.70;;;18.20;43.30;17.30;102039.00;;;;5066244;28;20036;-64
2022/03/28 08:46:30;;;;;;;10.65;6.13;;;18.20;43.30;17.30;102026.00;;;;5060746;28;20060;-64
2022/03/28 08:49:18;;;;;;;10.85;6.20;;;18.20;43.30;17.30;102029.00;;;;5057210;28;20036;-64
2022/03/28 08:52:05;;;;;;;12.40;7.15;;;18.20;43.40;17.30;102025.00;;;;5055338;28;20375;-64
2022/03/28 08:54:51;;;;;;;15.05;7.30;;;18.20;43.40;17.30;102011.00;;;;5057492;28;20147;-64
2022/03/28 08:57:37;;;;;;;14.20;6.90;;;18.20;43.40;17.30;102008.00;;;;5055361;28;20051;-64
2022/03/28 09:00:23;;;;;;;12.27;7.72;;;18.20;43.40;17.30;102011.00;;;;5056758;28;20042;-64
2022/03/28 09:03:10;;;;;;;16.33;8.25;;;18.20;43.50;17.20;102000.00;;;;5038033;28;20051;-64
2022/03/28 09:05:56;;;;;;;14.23;7.65;;;18.20;43.50;17.20;102011.00;;;;5058448;28;20047;-64
2022/03/28 09:08:42;;;;;;;12.95;7.38;;;18.20;43.50;17.30;102010.00;;;;5058966;28;20497;-63
2022/03/28 09:11:28;;;;;;;13.98;7.63;;;18.20;43.50;17.20;102008.00;;;;5065134;28;20044;-64
2022/03/28 09:14:33;;;;;;;14.27;7.40;;;18.20;43.60;17.30;102004.00;;;;5063869;28;20063;-64
2022/03/28 09:17:19;;;;;;;11.85;7.20;;;18.20;43.60;17.30;101993.00;;;;5047966;28;20048;-64
2022/03/28 09:20:05;;;;;;;12.18;6.93;;;18.20;43.60;17.20;101988.00;;;;5051289;28;20048;-64
2022/03/28 09:22:52;;;;;;;12.60;7.32;;;18.20;43.60;17.30;101989.00;;;;5059309;28;20119;-64
2022/03/28 09:25:51;;;;;;;12.02;6.75;;;18.20;43.60;17.20;102000.00;;;;5062927;28;20071;-65
2022/03/28 09:28:58;;;;;;;;;;;18.20;43.60;17.20;102001.00;;;;5061791;28;20489;-65
2022/03/28 09:31:44;;;;;;;11.48;6.95;;;18.20;43.60;17.20;101992.00;;;;5068623;28;20345;-65
2022/03/28 09:34:30;;;;;;;11.80;6.72;;;18.20;43.50;17.20;102001.00;;;;5054882;28;20040;-65
2022/03/28 09:37:16;;;;;;;11.73;6.10;;;18.20;43.60;17.20;101995.00;;;;5049275;28;20459;-65
2022/03/28 09:40:28;;;;;;;11.27;6.22;;;18.20;43.60;17.20;101991.00;;;;5058508;28;20037;-65
2022/03/28 09:43:25;;;;;;;9.20;5.80;;;18.20;43.70;17.20;101996.00;;;;5043883;28;20052;-65
2022/03/28 09:46:11;;;;;;;9.98;5.80;;;18.20;43.70;17.20;101980.00;;;;5028760;28;20142;-65
2022/03/28 09:49:00;;;;;;;8.75;5.22;;;18.20;43.80;17.20;101981.00;;;;5048023;28;20041;-65
2022/03/28 09:51:46;;;;;;;9.10;5.15;;;18.20;43.70;17.30;101989.00;;;;5051176;28;20083;-65
2022/03/28 09:54:50;;;;;;;10.63;5.43;;;18.20;43.70;17.20;101988.00;;;;5027354;28;20476;-65
2022/03/28 09:57:37;;;;;;;13.32;5.55;;;18.20;43.70;17.30;101976.00;;;;5054876;28;20040;-66
2022/03/28 10:00:24;;;;;;;8.88;5.38;;;18.20;43.70;17.30;101962.00;;;;5057562;28;20045;-65
2022/03/28 10:03:10;;;;;;;8.13;5.28;;;18.20;43.70;17.30;101968.00;;;;5053702;28;20068;-65
2022/03/28 10:05:57;;;;;;;7.57;4.85;;;18.30;43.70;17.30;101946.00;;;;5055131;28;20440;-66
2022/03/28 10:08:43;;;;;;;8.23;5.38;;;18.20;43.70;17.30;101943.00;;;;5051264;28;20482;-65
2022/03/28 10:11:29;;;;;;;9.93;5.38;;;18.20;43.70;17.30;101931.00;;;;5061682;28;20367;-65
2022/03/28 10:14:15;;;;;;;8.80;5.07;;;18.30;43.80;17.30;101938.00;;;;5039510;28;20044;-65
2022/03/28 10:17:03;;;;;;;8.40;4.50;;;18.20;43.80;17.30;101930.00;;;;5058042;28;20055;-65
2022/03/28 10:19:49;;;;;;;6.93;4.65;;;18.20;43.80;17.30;101936.00;;;;5069858;28;20036;-65
2022/03/28 10:22:36;;;;;;;8.45;4.97;;;18.30;44.00;17.30;101935.00;;;;5045918;28;20133;-65
2022/03/28 10:25:23;;;;;;;8.77;4.97;;;18.20;43.90;17.30;101920.00;;;;5049035;28;20185;-65
2022/03/28 10:28:09;;;;;;;9.27;4.78;;;18.30;43.90;17.30;101924.00;;;;5071626;28;20045;-65
2022/03/28 10:31:15;;;;;;;8.55;5.00;;;18.40;44.00;17.30;101932.00;;;;5063358;28;20032;-65
2022/03/28 10:34:03;;;;;;;10.05;4.93;;;18.30;43.90;17.30;101926.00;;;;5063959;28;20048;-65
2022/03/28 10:36:49;;;;;;;10.07;4.70;;;18.30;43.90;17.30;101927.00;;;;5077121;28;20158;-65
2022/03/28 10:39:36;;;;;;;7.40;5.00;;;18.30;43.90;17.30;101924.00;;;;5064495;28;20046;-65
2022/03/28 10:42:26;;;;;;;8.02;4.85;;;18.30;43.90;17.40;101925.00;;;;5043877;28;20045;-65
2022/03/28 10:45:18;;;;;;;6.78;4.35;;;18.30;44.00;17.40;101918.00;;;;5049138;28;20123;-65
2022/03/28 10:48:08;;;;;;;9.10;5.35;;;18.30;43.90;17.40;101921.00;;;;5043450;28;20058;-66
2022/03/28 10:50:55;;;;;;;9.18;4.95;;;18.40;44.00;17.40;101914.00;;;;5047931;28;20058;-65
2022/03/28 10:53:56;;;;;;;10.27;4.27;;;18.40;44.00;17.40;101896.00;;;;5057441;28;20044;-65
2022/03/28 10:56:45;;;;;;;9.15;5.55;;;18.40;44.00;17.40;101906.00;;;;5055496;28;20076;-65
2022/03/28 10:59:31;;;;;;;9.85;5.38;;;18.40;44.00;17.40;101897.00;;;;5061972;28;20314;-65
2022/03/28 11:02:30;;;;;;;9.30;5.43;;;18.40;44.00;17.40;101902.00;;;;5063800;28;20033;-65
2022/03/28 11:05:16;;;;;;;9.88;5.10;;;18.40;44.10;17.40;101896.00;;;;5061935;28;20041;-65
2022/03/28 11:08:03;;;;;;;7.40;4.40;;;18.40;44.10;17.40;101891.00;;;;5059113;28;20502;-65
2022/03/28 11:11:14;;;;;;;8.18;4.78;;;18.40;44.20;17.40;101890.00;;;;5045615;28;20051;-65
2022/03/28 11:14:04;;;;;;;9.15;5.47;;;18.40;44.30;17.40;101875.00;;;;5055658;28;20040;-65
2022/03/28 11:16:52;;;;;;;6.75;4.43;;;18.40;44.20;17.40;101871.00;;;;5057617;28;20181;-65
2022/03/28 11:19:50;;;;;;;;;;;18.50;44.30;17.40;101870.00;;;;5043450;28;20082;-65
2022/03/28 11:23:04;;;;;;;6.68;4.57;;;18.50;44.20;17.40;101870.00;;;;5047812;28;20238;-65
2022/03/28 11:25:56;;;;;;;8.18;4.88;;;18.50;44.30;17.40;101861.00;;;;5055107;28;20124;-64
2022/03/28 11:28:42;;;;;;;7.53;3.97;;;18.50;44.30;17.40;101860.00;;;;5061732;28;20182;-64
2022/03/28 11:31:28;;;;;;;7.03;4.07;;;18.50;44.30;17.40;101849.00;;;;5052733;28;20503;-64
2022/03/28 11:34:15;;;;;;;7.15;4.35;;;18.40;44.30;17.50;101849.00;;;;5063659;28;20055;-64
2022/03/28 11:37:01;;;;;;;6.40;3.72;;;18.50;44.30;17.50;101850.00;;;;5044967;28;20084;-64
2022/03/28 11:40:05;;;;;;;7.25;3.88;;;18.50;44.30;17.50;101843.00;;;;5033717;28;20036;-64
2022/03/28 11:42:54;;;;;;;6.60;3.72;;;18.50;44.40;17.50;101843.00;;;;5073344;28;20449;-64
2022/03/28 11:45:47;;;;;;;8.25;4.45;;;18.50;44.40;17.50;101831.00;;;;5055113;28;20496;-64
2022/03/28 11:48:34;;;;;;;6.05;3.75;;;18.50;44.50;17.50;101821.00;;;;5047332;28;20048;-64
2022/03/28 11:51:20;;;;;;;5.47;3.72;;;18.50;44.40;17.50;101823.00;;;;5061883;28;20048;-64
2022/03/28 11:54:17;;;;;;;5.65;3.38;;;18.60;44.50;17.50;101823.00;;;;5046141;28;20052;-64
2022/03/28 12:00:21;;;;;;;4.80;2.88;;;18.60;44.50;17.50;101824.00;;;;5059898;28;20052;-64
2022/03/28 12:03:11;;;;;;;6.15;3.38;;;18.60;44.50;17.60;101814.00;;;;5063809;28;20383;-64
2022/03/28 12:05:58;;;;;;;6.10;3.80;;;18.60;44.50;17.60;101810.00;;;;5064069;28;20036;-64
2022/03/28 12:08:49;;;;;;;6.50;3.50;;;18.60;44.50;17.60;101801.00;;;;5043719;28;20059;-64
2022/03/28 12:11:37;;;;;;;5.85;3.30;;;18.60;44.50;17.60;101798.00;;;;5042287;28;20068;-64
2022/03/28 12:14:23;;;;;;;6.43;3.72;;;18.60;44.50;17.60;101791.00;;;;5048698;28;20076;-64
2022/03/28 12:17:10;;;;;;;5.45;3.17;;;18.70;44.50;17.60;101780.00;;;;5056611;28;20095;-64
2022/03/28 12:20:06;;;;;;;3.80;2.90;;;18.70;44.50;17.60;101779.00;;;;5076998;28;20036;-64
2022/03/28 12:22:52;;;;;;;5.07;3.42;;;18.70;44.50;17.60;101774.00;;;;5076364;28;20143;-64